Peever, SD (57257)

5:47 PM CDT on August 30, 2015 (GMT -0500)
APRSWXNET | | Change Station
CLOSE
Current Station
Personal Weather Station
Location: Beardsley, MN
Elevation: 1164 ft
Nearby Weather Stations

Elev 1164 ft 45.54 °N, 96.88 °W | Updated 21 minutes ago

Clear
Clear
85 °F
Feels Like 89 °F
N
6
Wind Variable Wind from SSE
Gusts 13.0 mph

Today
High -- | Low -- °F
--% Chance of Precip.
Yesterday
High -- | Low -- °F
Precip. -- in
6:46 AM 8:09 PM
Full, 98% visible
Pressure 29.80 in
Visibility 10.0 miles
Clouds Clear
Heat Index 89 °F
Dew Point 69 °F
Humidity 58%
Rainfall in
Snow Depth Not available.
UV 2 out of 12
Pollen 11.40 out of 12
Air Quality Not available.
Flu Activity Not available.
METAR KETH 302236Z AUTO 15012KT 10SM CLR 27/20 A2980 RMK AO2
Pressure 29.80 in
Visibility 10.0 miles
Clouds Clear
Heat Index 89 °F
Dew Point 69 °F
Humidity 58%
Rainfall in
Snow Depth Not available.
UV 2 out of 12
Pollen 11.40 out of 12
Air Quality Not available.
Flu Activity Not available.
METAR KETH 302236Z AUTO 15012KT 10SM CLR 27/20 A2980 RMK AO2

10-Day Weather Forecast

×

Almanac

Astronomy

Aug. 30, 2015 Rise Set
Actual Time
Civil Twilight
Nautical Twilight
Astronomical Twilight
Moon
Length of Visible Light
Length of Day
Tomorrow will be .
, % of the Moon is Illuminated

Today's Extremes

State Highs State Lows

Community

WunderPhotos

Upload Photos

1,851,075 photos uploaded!

WunderBlogs® & News

Nearby

Air Quality

  Air Quality AQ Index Pollutant
Not available.

Snow Depth

Station Depth Elevation

Earthquake Activity

City Distance Mag. Time & Date
Minimum magnitude displayed is 2.5.

Coastal Water Temperatures

Place Temperature

Stations

Nearby Weather Stations

Station Location Temp. Windchill Dew Point Humidity Wind Precip. Elev Updated Type